createdAt,value
2022-12-09T00:00:22.665Z,86.45
2022-12-09T00:05:44.403Z,86.51
2022-12-09T00:10:46.532Z,86.53
2022-12-09T00:15:48.750Z,86.61
2022-12-09T00:20:48.002Z,86.64
2022-12-09T00:25:47.442Z,86.72
2022-12-09T00:30:47.171Z,86.73
2022-12-09T00:35:47.394Z,86.76
2022-12-09T00:40:46.937Z,86.95
2022-12-09T00:45:46.399Z,87.10
2022-12-09T00:50:48.383Z,87.19
2022-12-09T00:55:48.428Z,87.26
2022-12-09T01:00:47.433Z,87.27
2022-12-09T01:05:47.051Z,87.27
2022-12-09T01:10:48.141Z,87.33
2022-12-09T01:15:47.509Z,87.32
2022-12-09T01:20:47.493Z,87.35
2022-12-09T01:25:46.460Z,87.41
2022-12-09T01:30:45.487Z,87.43
2022-12-09T01:35:46.779Z,87.43
2022-12-09T01:40:51.419Z,87.46
2022-12-09T01:45:51.315Z,87.51
2022-12-09T01:50:56.992Z,87.53
2022-12-09T01:55:58.860Z,87.57
2022-12-09T02:00:59.363Z,87.56
2022-12-09T02:05:59.413Z,87.63
2022-12-09T02:11:14.234Z,87.64
2022-12-09T02:16:22.792Z,87.68
2022-12-09T02:21:32.456Z,87.74
2022-12-09T02:26:43.936Z,87.78
2022-12-09T02:32:06.785Z,87.79
2022-12-09T02:37:18.311Z,87.82
2022-12-09T02:42:26.099Z,87.83
2022-12-09T02:47:31.464Z,87.90
2022-12-09T02:52:35.633Z,87.93
2022-12-09T02:57:39.642Z,87.98
2022-12-09T03:02:45.411Z,88.07
2022-12-09T03:07:57.528Z,88.12
2022-12-09T03:13:06.385Z,88.15
2022-12-09T03:18:11.381Z,88.18
2022-12-09T03:23:13.250Z,88.22
2022-12-09T03:28:20.250Z,88.24
2022-12-09T03:33:23.557Z,88.26
2022-12-09T03:38:28.811Z,88.31
2022-12-09T03:43:31.903Z,88.36
2022-12-09T03:48:32.461Z,88.38
2022-12-09T03:53:40.856Z,88.45
2022-12-09T03:58:44.552Z,88.51
2022-12-09T04:03:49.629Z,88.50
2022-12-09T04:08:49.449Z,88.52
2022-12-09T04:13:48.877Z,88.55
2022-12-09T04:18:47.697Z,88.57
2022-12-09T04:23:48.660Z,88.59
2022-12-09T04:28:49.448Z,88.60
2022-12-09T04:33:50.138Z,88.68
2022-12-09T04:38:49.982Z,88.67
2022-12-09T04:43:50.386Z,88.66
2022-12-09T04:48:49.551Z,88.65
2022-12-09T04:53:50.041Z,88.63
2022-12-09T04:58:50.843Z,88.63
2022-12-09T05:03:54.898Z,88.73
2022-12-09T05:08:58.037Z,88.79
2022-12-09T05:13:58.018Z,88.83
2022-12-09T05:18:57.969Z,88.81
2022-12-09T05:23:59.075Z,88.83
2022-12-09T05:28:58.485Z,88.85
2022-12-09T05:33:57.833Z,88.83
2022-12-09T05:38:57.938Z,88.82
2022-12-09T05:43:57.337Z,88.83
2022-12-09T05:48:57.239Z,88.86
2022-12-09T05:53:58.415Z,88.86
2022-12-09T05:58:59.470Z,88.87
2022-12-09T06:03:59.532Z,88.90
2022-12-09T06:09:03.700Z,88.93
2022-12-09T06:14:03.017Z,88.96
2022-12-09T06:19:04.332Z,88.96
2022-12-09T06:24:04.904Z,88.97
2022-12-09T06:29:04.291Z,88.96
2022-12-09T06:34:03.135Z,88.97
2022-12-09T06:39:10.417Z,88.96
2022-12-09T06:44:12.813Z,88.96
2022-12-09T06:49:15.765Z,88.96
2022-12-09T06:54:15.350Z,88.96
2022-12-09T06:59:15.013Z,88.98
2022-12-09T07:04:16.908Z,88.99
2022-12-09T07:09:20.364Z,89.02
2022-12-09T07:14:21.572Z,89.07
2022-12-09T07:19:24.747Z,89.12
2022-12-09T07:24:24.807Z,89.13
2022-12-09T07:29:24.209Z,89.16
2022-12-09T07:34:25.117Z,89.18
2022-12-09T07:39:25.269Z,89.22
2022-12-09T07:44:25.867Z,89.26
2022-12-09T07:49:26.503Z,89.27
2022-12-09T07:54:25.998Z,89.30
2022-12-09T07:59:25.488Z,89.33
2022-12-09T08:04:24.543Z,89.38
2022-12-09T08:09:24.613Z,89.44
2022-12-09T08:14:24.631Z,89.53
2022-12-09T08:19:25.441Z,89.53
2022-12-09T08:24:27.605Z,89.65
2022-12-09T08:29:28.009Z,89.64
2022-12-09T08:34:28.531Z,89.66
2022-12-09T08:39:28.386Z,89.61
2022-12-09T08:44:27.372Z,89.63
2022-12-09T08:49:28.268Z,89.61
2022-12-09T08:54:28.135Z,89.61
2022-12-09T08:59:28.369Z,89.59
2022-12-09T09:04:28.282Z,89.59
2022-12-09T09:09:27.624Z,89.58
2022-12-09T09:14:27.137Z,89.54
2022-12-09T09:19:28.766Z,89.53
2022-12-09T09:24:29.536Z,89.51
2022-12-09T09:29:29.513Z,89.51
2022-12-09T09:34:30.784Z,89.48
2022-12-09T09:39:30.840Z,89.42
2022-12-09T09:44:38.748Z,89.40
2022-12-09T09:49:50.170Z,89.37
2022-12-09T09:54:50.154Z,89.32
2022-12-09T10:00:09.874Z,89.29
2022-12-09T10:05:26.235Z,89.25
2022-12-09T10:10:43.812Z,89.17
2022-12-09T10:15:55.992Z,89.11
2022-12-09T10:20:55.596Z,89.07
2022-12-09T10:25:59.652Z,89.01
2022-12-09T10:31:00.112Z,88.91
2022-12-09T10:36:00.259Z,88.84
2022-12-09T10:41:11.812Z,88.64
2022-12-09T10:46:23.427Z,88.53
2022-12-09T10:51:31.184Z,88.49
2022-12-09T10:56:34.356Z,88.36
2022-12-09T11:01:48.897Z,88.23
2022-12-09T11:06:55.512Z,88.12
2022-12-09T11:11:59.258Z,87.98
2022-12-09T11:17:01.945Z,87.92
2022-12-09T11:22:26.652Z,87.74
2022-12-09T11:27:35.480Z,87.61
2022-12-09T11:32:37.404Z,87.48
2022-12-09T11:37:40.144Z,87.32
2022-12-09T11:42:39.990Z,87.11
2022-12-09T11:48:22.602Z,86.98
2022-12-09T11:53:26.961Z,86.82
2022-12-09T11:58:32.213Z,86.59
2022-12-09T12:03:42.660Z,86.34
2022-12-09T12:08:51.996Z,86.14
2022-12-09T12:13:55.661Z,85.96
2022-12-09T12:19:04.668Z,85.70
2022-12-09T12:24:57.562Z,84.50
2022-12-09T12:30:05.971Z,84.86
2022-12-09T12:35:38.923Z,84.70
2022-12-09T12:40:48.425Z,84.61
2022-12-09T12:46:16.311Z,84.33
2022-12-09T12:51:34.490Z,84.27
2022-12-09T12:56:46.915Z,83.98
2022-12-09T13:01:56.231Z,83.97
2022-12-09T13:07:07.454Z,83.65
2022-12-09T13:12:16.628Z,83.31
2022-12-09T13:17:18.567Z,82.94
2022-12-09T13:22:25.823Z,82.56
2022-12-09T13:27:37.306Z,82.21
2022-12-09T13:33:08.637Z,81.86
2022-12-09T13:38:28.352Z,81.49
2022-12-09T13:43:31.862Z,81.02
2022-12-09T13:48:47.921Z,79.62
2022-12-09T13:54:07.843Z,79.42
2022-12-09T13:59:41.913Z,79.52
2022-12-09T14:04:54.057Z,79.55
2022-12-09T14:09:57.670Z,79.63
2022-12-09T14:14:59.177Z,79.67
2022-12-09T14:20:22.425Z,79.77
2022-12-09T14:26:02.959Z,79.89
2022-12-09T14:31:08.372Z,80.09
2022-12-09T14:36:26.381Z,80.23
2022-12-09T14:41:31.552Z,80.38
2022-12-09T14:46:35.574Z,80.51
2022-12-09T14:51:41.533Z,80.57
2022-12-09T14:56:42.117Z,80.64
2022-12-09T15:02:22.811Z,80.72
2022-12-09T15:07:25.571Z,80.77
2022-12-09T15:12:32.259Z,80.87
2022-12-09T15:17:38.094Z,81.02
2022-12-09T15:22:37.960Z,81.16
2022-12-09T15:27:37.077Z,81.29
2022-12-09T15:32:40.039Z,81.42
2022-12-09T15:37:39.793Z,81.55
2022-12-09T15:42:44.221Z,81.69
2022-12-09T15:47:51.369Z,81.84
2022-12-09T15:52:55.914Z,82.01
2022-12-09T15:57:58.975Z,82.18
2022-12-09T16:02:59.686Z,82.39
2022-12-09T16:08:12.882Z,82.61
2022-12-09T16:13:16.151Z,82.82
2022-12-09T16:18:22.926Z,83.04
2022-12-09T16:23:27.329Z,83.24
2022-12-09T16:28:29.297Z,83.47
2022-12-09T16:33:30.858Z,83.66
2022-12-09T16:38:30.050Z,83.81
2022-12-09T16:43:30.753Z,83.95
2022-12-09T16:48:31.952Z,84.09
2022-12-09T16:53:35.555Z,84.24
2022-12-09T16:58:37.359Z,84.34
2022-12-09T17:03:45.745Z,84.44
2022-12-09T17:08:45.292Z,84.55
2022-12-09T17:13:44.997Z,84.64
2022-12-09T17:18:44.670Z,84.74
2022-12-09T17:23:44.728Z,84.76
2022-12-09T17:28:45.693Z,84.85
2022-12-09T17:33:45.705Z,84.87
2022-12-09T17:38:45.529Z,84.93
2022-12-09T17:43:45.283Z,84.95
2022-12-09T17:48:44.457Z,84.97
2022-12-09T17:53:44.834Z,85.01
2022-12-09T17:58:45.006Z,85.03
2022-12-09T18:03:56.157Z,85.06
2022-12-09T18:08:57.108Z,85.11
2022-12-09T18:13:56.742Z,85.15
2022-12-09T18:18:56.758Z,85.19
2022-12-09T18:23:56.339Z,85.29
2022-12-09T18:28:59.118Z,85.36
2022-12-09T18:33:58.304Z,85.43
2022-12-09T18:38:58.721Z,85.50
2022-12-09T18:44:00.801Z,85.57
2022-12-09T18:49:05.910Z,85.64
2022-12-09T18:54:06.673Z,85.73
2022-12-09T18:59:07.902Z,85.83
2022-12-09T19:04:12.895Z,85.97
2022-12-09T19:09:16.273Z,86.00
2022-12-09T19:14:16.226Z,86.01
2022-12-09T19:19:19.933Z,86.06
2022-12-09T19:24:22.697Z,86.07
2022-12-09T19:29:24.937Z,86.10
2022-12-09T19:34:26.641Z,86.19
2022-12-09T19:39:30.292Z,86.29
2022-12-09T19:45:00.996Z,86.34
2022-12-09T19:49:51.871Z,86.36
2022-12-09T19:54:50.676Z,86.39
2022-12-09T19:59:50.271Z,86.42
2022-12-09T20:04:50.849Z,86.42
2022-12-09T20:09:50.744Z,86.46
2022-12-09T20:14:50.070Z,86.49
2022-12-09T20:19:50.117Z,86.51
2022-12-09T20:24:50.573Z,86.51
2022-12-09T20:29:50.265Z,86.50
2022-12-09T20:34:51.461Z,86.49
2022-12-09T20:39:50.398Z,86.50
2022-12-09T20:44:50.216Z,86.51
2022-12-09T20:49:49.402Z,86.54
2022-12-09T20:54:48.865Z,86.53
2022-12-09T20:59:48.296Z,86.55
2022-12-09T21:04:47.404Z,86.59
2022-12-09T21:09:46.750Z,86.65
2022-12-09T21:14:45.989Z,86.65
2022-12-09T21:19:45.280Z,86.74
2022-12-09T21:24:44.156Z,86.74
2022-12-09T21:29:45.325Z,86.78
2022-12-09T21:34:44.462Z,86.81
2022-12-09T21:39:44.029Z,86.82
2022-12-09T21:44:43.616Z,86.85
2022-12-09T21:49:42.864Z,86.88
2022-12-09T21:54:42.170Z,86.86
2022-12-09T21:59:41.693Z,86.88
2022-12-09T22:04:41.150Z,86.91
2022-12-09T22:09:41.402Z,86.92
2022-12-09T22:14:41.029Z,86.93
2022-12-09T22:19:39.936Z,86.95
2022-12-09T22:24:38.752Z,86.97
2022-12-09T22:29:38.215Z,86.99
2022-12-09T22:34:37.629Z,87.02
2022-12-09T22:39:36.755Z,87.05
2022-12-09T22:44:36.554Z,87.09
2022-12-09T22:49:36.821Z,87.10
2022-12-09T22:54:36.308Z,87.16
2022-12-09T22:59:41.349Z,87.17
2022-12-09T23:04:42.144Z,87.17
2022-12-09T23:09:41.356Z,87.18
2022-12-09T23:14:41.018Z,87.18
2022-12-09T23:19:40.392Z,87.18
2022-12-09T23:24:39.549Z,87.20
2022-12-09T23:29:39.291Z,87.22
2022-12-09T23:34:40.208Z,87.22
2022-12-09T23:39:39.766Z,87.21
2022-12-09T23:44:40.949Z,87.21
2022-12-09T23:49:39.554Z,87.21
2022-12-09T23:54:39.463Z,87.23
2022-12-09T23:59:40.603Z,87.25
